Time;durP1;ratioP1;P1;durP2;ratioP2;P2;SDS_P1;SDS_P2;PMS_P1;PMS_P2;Temp;Humidity;BMP_temperature;BMP_pressure;BME280_temperature;BME280_humidity;BME280_pressure;Samples;Min_cycle;Max_cycle;Signal;HPM_P1;HPM_P2
2024/03/18 00:00:52;;;;;;;;;;;;;;;;;;4968851;28;20351;-72
2024/03/18 00:03:20;;;;;;;;;;;;;;;;;;4968139;28;19934;-73
2024/03/18 00:05:47;;;;;;;;;;;;;;;;;;4961325;28;20348;-72
2024/03/18 00:08:14;;;;;;;;;;;;;;;;;;4967894;28;19952;-73
2024/03/18 00:10:41;;;;;;;;;;;;;;;;;;4967884;28;19938;-72
2024/03/18 00:13:08;;;;;;;;;;;;;;;;;;4968938;28;20013;-72
2024/03/18 00:15:35;;;;;;;;;;;;;;;;;;4968596;28;19965;-72
2024/03/18 00:18:03;;;;;;;;;;;;;;;;;;4965905;28;19930;-72
2024/03/18 00:20:30;;;;;;;;;;;;;;;;;;4968642;28;19974;-72
2024/03/18 00:22:57;;;;;;;;;;;;;;;;;;4968412;28;19930;-72
2024/03/18 00:25:24;;;;;;;;;;;;;;;;;;4968108;28;19934;-72
2024/03/18 00:27:51;;;;;;;;;;;;;;;;;;4965575;28;20083;-73
2024/03/18 00:30:18;;;;;;;;;;;;;;;;;;4967861;28;19962;-72
2024/03/18 00:32:45;;;;;;;;;;;;;;;;;;4967991;28;19972;-72
2024/03/18 00:35:13;;;;;;;;;;;;;;;;;;4968546;28;19930;-72
2024/03/18 00:37:40;;;;;;;;;;;;;;;;;;4967539;28;20385;-72
2024/03/18 00:40:08;;;;;;;;;;;;;;;;;;4967633;28;19973;-72
2024/03/18 00:42:34;;;;;;;;;;;;;;;;;;4970419;28;19930;-73
2024/03/18 00:45:02;;;;;;;;;;;;;;;;;;4968025;28;20363;-73
2024/03/18 00:47:29;;;;;;;;;;;;;;;;;;4969543;28;19934;-73
2024/03/18 00:49:56;;;;;;;;;;;;;;;;;;4968411;28;19959;-72
2024/03/18 00:52:23;;;;;;;;;;;;;;;;;;4967718;28;19936;-72
2024/03/18 00:54:50;;;;;;;;;;;;;;;;;;4966974;28;19930;-72
2024/03/18 00:57:17;;;;;;;;;;;;;;;;;;4967340;28;19997;-72
2024/03/18 00:59:45;;;;;;;;;;;;;;;;;;4966827;28;19934;-72
2024/03/18 01:02:12;;;;;;;;;;;;;;;;;;4965936;28;20020;-74
2024/03/18 01:04:39;;;;;;;;;;;;;;;;;;4965095;28;19977;-72
2024/03/18 01:07:06;;;;;;;;;;;;;;;;;;4967129;28;19930;-72
2024/03/18 01:09:33;;;;;;;;;;;;;;;;;;4967495;28;19930;-72
2024/03/18 01:12:00;;;;;;;;;;;;;;;;;;4967584;28;20058;-72
2024/03/18 01:14:27;;;;;;;;;;;;;;;;;;4966960;28;20385;-72
2024/03/18 01:16:54;;;;;;;;;;;;;;;;;;4967129;28;20010;-72
2024/03/18 01:19:21;;;;;;;;;;;;;;;;;;4957114;28;19969;-72
2024/03/18 01:21:48;;;;;;;;;;;;;;;;;;4967362;28;19965;-72
2024/03/18 01:24:16;;;;;;;;;;;;;;;;;;4967643;28;19930;-72
2024/03/18 01:26:44;;;;;;;;;;;;;;;;;;4963265;28;20037;-72
2024/03/18 01:29:11;;;;;;;;;;;;;;;;;;4967584;28;19969;-72
2024/03/18 01:31:38;;;;;;;;;;;;;;;;;;4967191;28;20341;-72
2024/03/18 01:34:05;;;;;;;;;;;;;;;;;;4966381;28;20409;-72
2024/03/18 01:36:33;;;;;;;;;;;;;;;;;;4966271;28;20359;-72
2024/03/18 01:39:00;;;;;;;;;;;;;;;;;;4966086;28;19934;-71
2024/03/18 01:41:27;;;;;;;;;;;;;;;;;;4967176;28;20087;-71
2024/03/18 01:43:54;;;;;;;;;;;;;;;;;;4966743;28;19970;-72
2024/03/18 01:46:21;;;;;;;;;;;;;;;;;;4967308;28;19930;-72
2024/03/18 01:48:48;;;;;;;;;;;;;;;;;;4966797;28;20006;-72
2024/03/18 01:51:16;;;;;;;;;;;;;;;;;;4965884;28;19996;-72
2024/03/18 01:53:43;;;;;;;;;;;;;;;;;;4965285;28;19937;-72
2024/03/18 01:56:10;;;;;;;;;;;;;;;;;;4966784;28;19933;-72
2024/03/18 01:58:38;;;;;;;;;;;;;;;;;;4961697;28;20383;-72
2024/03/18 02:01:06;;;;;;;;;;;;;;;;;;4966647;28;19983;-70
2024/03/18 02:03:33;;;;;;;;;;;;;;;;;;4955760;28;19937;-71
2024/03/18 02:06:00;;;;;;;;;;;;;;;;;;4968087;28;19934;-73
2024/03/18 02:08:27;;;;;;;;;;;;;;;;;;4966889;28;19936;-71
2024/03/18 02:10:54;;;;;;;;;;;;;;;;;;4968346;28;19955;-72
2024/03/18 02:13:21;;;;;;;;;;;;;;;;;;4970407;28;19995;-72
2024/03/18 02:15:48;;;;;;;;;;;;;;;;;;4968073;28;19934;-72
2024/03/18 02:18:15;;;;;;;;;;;;;;;;;;4966673;28;20025;-72
2024/03/18 02:20:42;;;;;;;;;;;;;;;;;;4970001;28;20342;-71
2024/03/18 02:23:11;;;;;;;;;;;;;;;;;;4969805;28;20468;-73
2024/03/18 02:25:39;;;;;;;;;;;;;;;;;;4968137;28;20393;-71
2024/03/18 02:28:06;;;;;;;;;;;;;;;;;;4970021;28;19930;-73
2024/03/18 02:30:33;;;;;;;;;;;;;;;;;;4969386;28;20759;-72
2024/03/18 02:33:01;;;;;;;;;;;;;;;;;;4969242;28;19930;-72
2024/03/18 02:35:28;;;;;;;;;;;;;;;;;;4969701;28;20015;-71
2024/03/18 02:37:55;;;;;;;;;;;;;;;;;;4969133;28;19960;-72
2024/03/18 02:40:22;;;;;;;;;;;;;;;;;;4967119;28;20433;-72
2024/03/18 02:42:49;;;;;;;;;;;;;;;;;;4967473;28;19930;-71
2024/03/18 02:45:16;;;;;;;;;;;;;;;;;;4967381;28;19933;-72
2024/03/18 02:47:43;;;;;;;;;;;;;;;;;;4969849;28;19945;-72
2024/03/18 02:50:10;;;;;;;;;;;;;;;;;;4970668;28;20443;-71
2024/03/18 02:52:37;;;;;;;;;;;;;;;;;;4969928;28;19974;-72
2024/03/18 02:55:05;;;;;;;;;;;;;;;;;;4969246;28;19934;-72
2024/03/18 02:57:32;;;;;;;;;;;;;;;;;;4969126;28;20393;-72
2024/03/18 02:59:59;;;;;;;;;;;;;;;;;;4960212;28;19930;-71
2024/03/18 03:02:26;;;;;;;;;;;;;;;;;;4969236;28;20029;-72
2024/03/18 03:04:54;;;;;;;;;;;;;;;;;;4969539;28;20011;-72
2024/03/18 03:07:21;;;;;;;;;;;;;;;;;;4969354;28;19933;-71
2024/03/18 03:09:48;;;;;;;;;;;;;;;;;;4969020;28;20313;-71
2024/03/18 03:12:15;;;;;;;;;;;;;;;;;;4968549;28;20355;-72
2024/03/18 03:14:42;;;;;;;;;;;;;;;;;;4968911;28;19930;-72
2024/03/18 03:17:10;;;;;;;;;;;;;;;;;;4967616;28;19930;-71
2024/03/18 03:19:38;;;;;;;;;;;;;;;;;;4968629;28;19974;-71
2024/03/18 03:22:05;;;;;;;;;;;;;;;;;;4964329;28;20048;-71
2024/03/18 03:24:32;;;;;;;;;;;;;;;;;;4968203;28;19995;-71
2024/03/18 03:26:59;;;;;;;;;;;;;;;;;;4964433;28;19992;-72
2024/03/18 03:29:26;;;;;;;;;;;;;;;;;;4968583;28;20051;-72
2024/03/18 03:31:53;;;;;;;;;;;;;;;;;;4968792;28;19934;-72
2024/03/18 03:34:20;;;;;;;;;;;;;;;;;;4965732;28;19934;-70
2024/03/18 03:36:47;;;;;;;;;;;;;;;;;;4968652;28;19992;-72
2024/03/18 03:39:14;;;;;;;;;;;;;;;;;;4967789;28;19930;-72
2024/03/18 03:41:41;;;;;;;;;;;;;;;;;;4968516;28;19996;-72
2024/03/18 03:44:08;;;;;;;;;;;;;;;;;;4968576;28;20482;-73
2024/03/18 03:46:35;;;;;;;;;;;;;;;;;;4968714;28;20467;-72
2024/03/18 03:49:03;;;;;;;;;;;;;;;;;;4966914;28;19930;-72
2024/03/18 03:51:30;;;;;;;;;;;;;;;;;;4963754;28;19938;-72
2024/03/18 03:53:58;;;;;;;;;;;;;;;;;;4968925;28;19965;-73
2024/03/18 03:56:25;;;;;;;;;;;;;;;;;;4967978;28;20029;-72
2024/03/18 03:58:52;;;;;;;;;;;;;;;;;;4968453;28;19957;-72
2024/03/18 04:01:19;;;;;;;;;;;;;;;;;;4967851;28;20393;-72
2024/03/18 04:03:46;;;;;;;;;;;;;;;;;;4969185;28;19973;-72
2024/03/18 04:06:13;;;;;;;;;;;;;;;;;;4969231;28;19992;-72
2024/03/18 04:08:40;;;;;;;;;;;;;;;;;;4964085;28;19984;-72
2024/03/18 04:11:07;;;;;;;;;;;;;;;;;;4968238;28;20026;-72
2024/03/18 04:13:34;;;;;;;;;;;;;;;;;;4967684;28;20359;-72
2024/03/18 04:16:01;;;;;;;;;;;;;;;;;;4967975;28;20352;-73
2024/03/18 04:18:29;;;;;;;;;;;;;;;;;;4966886;28;20465;-73
2024/03/18 04:20:59;;;;;;;;;;;;;;;;;;4967781;28;20294;-73
2024/03/18 04:23:26;;;;;;;;;;;;;;;;;;4968497;28;19937;-73
2024/03/18 04:25:53;;;;;;;;;;;;;;;;;;4966607;28;19945;-73
2024/03/18 04:28:22;;;;;;;;;;;;;;;;;;4965973;28;20213;-73
2024/03/18 04:30:49;;;;;;;;;;;;;;;;;;4968215;28;19930;-75
2024/03/18 04:33:17;;;;;;;;;;;;;;;;;;4965094;28;19938;-74
2024/03/18 04:35:45;;;;;;;;;;;;;;;;;;4968833;28;19930;-72
2024/03/18 04:38:12;;;;;;;;;;;;;;;;;;4968218;28;19984;-73
2024/03/18 04:40:39;;;;;;;;;;;;;;;;;;4968280;28;20017;-73
2024/03/18 04:43:06;;;;;;;;;;;;;;;;;;4960658;28;19930;-73
2024/03/18 04:45:33;;;;;;;;;;;;;;;;;;4968940;28;19934;-74
2024/03/18 04:48:00;;;;;;;;;;;;;;;;;;4969496;28;19930;-71
2024/03/18 04:50:27;;;;;;;;;;;;;;;;;;4968271;28;19930;-72
2024/03/18 04:52:54;;;;;;;;;;;;;;;;;;4966036;28;19930;-72
2024/03/18 04:55:22;;;;;;;;;;;;;;;;;;4970262;28;20026;-73
2024/03/18 04:57:49;;;;;;;;;;;;;;;;;;4969524;28;19971;-74
2024/03/18 05:00:17;;;;;;;;;;;;;;;;;;4962576;28;20352;-73
2024/03/18 05:02:44;;;;;;;;;;;;;;;;;;4962823;28;19970;-73
2024/03/18 05:05:12;;;;;;;;;;;;;;;;;;4968913;28;20016;-74
2024/03/18 05:07:39;;;;;;;;;;;;;;;;;;4968312;28;19934;-73
2024/03/18 05:10:06;;;;;;;;;;;;;;;;;;4968465;28;20027;-74
2024/03/18 05:12:33;;;;;;;;;;;;;;;;;;4966203;28;20278;-72
2024/03/18 05:15:00;;;;;;;;;;;;;;;;;;4968270;28;19930;-73
2024/03/18 05:17:27;;;;;;;;;;;;;;;;;;4963718;28;19949;-75
2024/03/18 05:19:55;;;;;;;;;;;;;;;;;;4967429;28;20017;-74
2024/03/18 05:22:22;;;;;;;;;;;;;;;;;;4968040;28;19934;-74
2024/03/18 05:24:49;;;;;;;;;;;;;;;;;;4966914;28;19930;-74
2024/03/18 05:27:16;;;;;;;;;;;;;;;;;;4967813;28;20394;-74
2024/03/18 05:29:43;;;;;;;;;;;;;;;;;;4968386;28;20282;-73
2024/03/18 05:32:10;;;;;;;;;;;;;;;;;;4968379;28;20374;-75
2024/03/18 05:34:37;;;;;;;;;;;;;;;;;;4973372;28;20404;-74
2024/03/18 05:37:04;;;;;;;;;;;;;;;;;;4958958;28;19937;-74
2024/03/18 05:39:32;;;;;;;;;;;;;;;;;;4965413;28;20035;-73
2024/03/18 05:41:59;;;;;;;;;;;;;;;;;;4976058;28;19976;-73
2024/03/18 05:44:26;;;;;;;;;;;;;;;;;;4996718;28;20006;-74
2024/03/18 05:46:53;;;;;;;;;;;;;;;;;;4970865;28;20347;-73
2024/03/18 05:49:20;;;;;;;;;;;;;;;;;;4970038;28;19930;-73
2024/03/18 05:51:48;;;;;;;;;;;;;;;;;;4968038;28;20019;-73
2024/03/18 05:54:16;;;;;;;;;;;;;;;;;;4967491;28;20036;-73
2024/03/18 05:56:43;;;;;;;;;;;;;;;;;;4970027;28;19950;-75
2024/03/18 05:59:11;;;;;;;;;;;;;;;;;;4971159;28;19977;-73
2024/03/18 06:01:38;;;;;;;;;;;;;;;;;;4970423;28;19930;-73
2024/03/18 06:04:05;;;;;;;;;;;;;;;;;;4970890;28;19957;-73
2024/03/18 06:06:32;;;;;;;;;;;;;;;;;;4968435;28;19934;-73
2024/03/18 06:08:59;;;;;;;;;;;;;;;;;;4969196;28;19982;-74
2024/03/18 06:11:26;;;;;;;;;;;;;;;;;;4969803;28;19960;-74
2024/03/18 06:13:53;;;;;;;;;;;;;;;;;;4967182;28;20281;-74
2024/03/18 06:16:20;;;;;;;;;;;;;;;;;;4969775;28;19981;-74
2024/03/18 06:18:49;;;;;;;;;;;;;;;;;;4967566;28;19980;-74
2024/03/18 06:21:17;;;;;;;;;;;;;;;;;;4959864;28;20105;-73
2024/03/18 06:23:46;;;;;;;;;;;;;;;;;;4968800;28;19933;-73
2024/03/18 06:26:12;;;;;;;;;;;;;;;;;;4957381;28;19987;-74
2024/03/18 06:28:40;;;;;;;;;;;;;;;;;;4970348;28;20281;-74
2024/03/18 06:31:07;;;;;;;;;;;;;;;;;;4969589;28;20395;-74
2024/03/18 06:33:34;;;;;;;;;;;;;;;;;;4970323;28;19987;-74
2024/03/18 06:36:08;;;;;;;;;;;;;;;;;;4968522;28;20019;-73
2024/03/18 06:38:35;;;;;;;;;;;;;;;;;;4960153;28;19930;-75
2024/03/18 06:41:02;;;;;;;;;;;;;;;;;;4961704;28;19977;-75
2024/03/18 06:43:30;;;;;;;;;;;;;;;;;;4964790;28;19934;-75
2024/03/18 06:45:57;;;;;;;;;;;;;;;;;;4959079;28;19937;-75
2024/03/18 06:48:25;;;;;;;;;;;;;;;;;;4963546;28;19934;-76
2024/03/18 06:50:52;;;;;;;;;;;;;;;;;;4959098;28;19935;-76
2024/03/18 06:53:20;;;;;;;;;;;;;;;;;;4960147;28;20258;-75
2024/03/18 06:55:47;;;;;;;;;;;;;;;;;;4971454;28;19930;-75
2024/03/18 06:58:14;;;;;;;;;;;;;;;;;;4963427;28;19930;-75
2024/03/18 07:00:41;;;;;;;;;;;;;;;;;;4970971;28;19934;-75
2024/03/18 07:03:08;;;;;;;;;;;;;;;;;;4960562;28;19938;-76
2024/03/18 07:05:35;;;;;;;;;;;;;;;;;;4962251;28;20376;-76
2024/03/18 07:08:02;;;;;;;;;;;;;;;;;;4961880;28;20347;-75
2024/03/18 07:10:30;;;;;;;;;;;;;;;;;;4959697;28;19952;-76
2024/03/18 07:12:57;;;;;;;;;;;;;;;;;;4958485;28;19973;-76
2024/03/18 07:15:24;;;;;;;;;;;;;;;;;;4959795;28;19970;-76
2024/03/18 07:17:51;;;;;;;;;;;;;;;;;;4960453;28;20365;-76
2024/03/18 07:20:18;;;;;;;;;;;;;;;;;;4961045;28;20017;-75
2024/03/18 07:22:45;;;;;;;;;;;;;;;;;;4958678;28;19975;-73
2024/03/18 07:25:17;;;;;;;;;;;;;;;;;;4959286;28;19973;-72
2024/03/18 07:27:44;;;;;;;;;;;;;;;;;;4957147;28;19941;-74
2024/03/18 07:30:11;;;;;;;;;;;;;;;;;;4957613;28;19934;-73
2024/03/18 07:32:38;;;;;;;;;;;;;;;;;;4956488;28;20027;-73
2024/03/18 07:35:06;;;;;;;;;;;;;;;;;;4960845;28;19937;-74
2024/03/18 07:37:33;;;;;;;;;;;;;;;;;;4966469;28;19984;-74
2024/03/18 07:40:00;;;;;;;;;;;;;;;;;;4956083;28;20344;-73
2024/03/18 07:42:27;;;;;;;;;;;;;;;;;;4959010;28;20027;-73
2024/03/18 07:44:56;;;;;;;;;;;;;;;;;;4961056;28;19977;-73
2024/03/18 07:47:26;;;;;;;;;;;;;;;;;;4961831;28;19934;-73
2024/03/18 07:49:53;;;;;;;;;;;;;;;;;;4961588;28;20032;-73
2024/03/18 07:52:20;;;;;;;;;;;;;;;;;;4960652;28;19983;-74
2024/03/18 07:54:48;;;;;;;;;;;;;;;;;;4965052;28;19984;-73
2024/03/18 07:57:16;;;;;;;;;;;;;;;;;;4956468;28;20363;-74
2024/03/18 07:59:43;;;;;;;;;;;;;;;;;;4959231;28;20025;-74
2024/03/18 08:02:10;;;;;;;;;;;;;;;;;;4963248;28;19942;-75
2024/03/18 08:04:37;;;;;;;;;;;;;;;;;;4960526;28;19976;-73
2024/03/18 08:07:04;;;;;;;;;;;;;;;;;;4963579;28;20073;-74
2024/03/18 08:09:31;;;;;;;;;;;;;;;;;;4961433;28;20039;-74
2024/03/18 08:11:58;;;;;;;;;;;;;;;;;;4968724;28;20298;-75
2024/03/18 08:14:25;;;;;;;;;;;;;;;;;;4967537;28;20393;-75
2024/03/18 08:16:54;;;;;;;;;;;;;;;;;;4967385;28;19926;-75
2024/03/18 08:19:21;;;;;;;;;;;;;;;;;;4966909;28;20056;-74
2024/03/18 08:21:48;;;;;;;;;;;;;;;;;;4967531;28;20474;-75
2024/03/18 08:24:16;;;;;;;;;;;;;;;;;;4965210;28;19977;-74
2024/03/18 08:26:43;;;;;;;;;;;;;;;;;;4965903;28;20440;-74
2024/03/18 08:29:10;;;;;;;;;;;;;;;;;;4967261;28;19969;-74
2024/03/18 08:31:37;;;;;;;;;;;;;;;;;;4966645;28;19965;-74
2024/03/18 08:34:04;;;;;;;;;;;;;;;;;;4968680;28;19987;-75
2024/03/18 08:36:31;;;;;;;;;;;;;;;;;;5007411;28;20305;-74
2024/03/18 08:38:58;;;;;;;;;;;;;;;;;;4980946;28;19973;-75
2024/03/18 08:41:25;;;;;;;;;;;;;;;;;;4965334;28;19961;-74
2024/03/18 08:43:52;;;;;;;;;;;;;;;;;;4979681;28;20016;-74
2024/03/18 08:46:19;;;;;;;;;;;;;;;;;;4975186;28;19949;-74
2024/03/18 08:48:46;;;;;;;;;;;;;;;;;;4968212;28;19926;-74
2024/03/18 08:51:14;;;;;;;;;;;;;;;;;;4969114;28;19938;-74
2024/03/18 08:53:43;;;;;;;;;;;;;;;;;;4969992;28;19937;-73
2024/03/18 08:56:11;;;;;;;;;;;;;;;;;;4968465;28;19953;-74
2024/03/18 08:58:38;;;;;;;;;;;;;;;;;;4956250;28;19930;-73
2024/03/18 09:01:07;;;;;;;;;;;;;;;;;;4962739;28;19941;-73
2024/03/18 09:03:34;;;;;;;;;;;;;;;;;;4971691;28;19935;-74
2024/03/18 09:06:02;;;;;;;;;;;;;;;;;;4961494;28;19945;-75
2024/03/18 09:08:29;;;;;;;;;;;;;;;;;;4968293;28;20402;-74
2024/03/18 09:10:57;;;;;;;;;;;;;;;;;;4962850;28;20576;-75
2024/03/18 09:13:24;;;;;;;;;;;;;;;;;;4958200;28;19941;-75
2024/03/18 09:15:52;;;;;;;;;;;;;;;;;;4948879;28;20260;-74
2024/03/18 09:18:19;;;;;;;;;;;;;;;;;;4965041;28;20009;-74
2024/03/18 09:20:46;;;;;;;;;;;;;;;;;;4962458;28;19930;-75
2024/03/18 09:23:13;;;;;;;;;;;;;;;;;;4966576;28;19938;-75
2024/03/18 09:25:41;;;;;;;;;;;;;;;;;;4966249;28;20020;-75
2024/03/18 09:28:09;;;;;;;;;;;;;;;;;;5011849;28;20403;-75
2024/03/18 09:30:36;;;;;;;;;;;;;;;;;;4967358;28;19930;-76
2024/03/18 09:33:03;;;;;;;;;;;;;;;;;;4958614;28;19973;-75
2024/03/18 09:35:30;;;;;;;;;;;;;;;;;;4967469;28;20439;-86
2024/03/18 09:37:57;;;;;;;;;;;;;;;;;;4970257;28;19938;-82
2024/03/18 09:40:24;;;;;;;;;;;;;;;;;;4960735;28;19937;-75
2024/03/18 09:42:51;;;;;;;;;;;;;;;;;;4963414;28;20455;-74
2024/03/18 09:45:18;;;;;;;;;;;;;;;;;;4985532;28;19978;-75
2024/03/18 09:47:46;;;;;;;;;;;;;;;;;;4965809;28;19961;-76
2024/03/18 09:50:13;;;;;;;;;;;;;;;;;;4966962;28;19936;-76
2024/03/18 09:52:40;;;;;;;;;;;;;;;;;;4982951;28;20020;-75
2024/03/18 09:55:07;;;;;;;;;;;;;;;;;;4957605;28;20035;-74
2024/03/18 09:57:34;;;;;;;;;;;;;;;;;;4959460;28;19930;-75
2024/03/18 10:00:01;;;;;;;;;;;;;;;;;;4962674;28;20059;-75
2024/03/18 10:02:28;;;;;;;;;;;;;;;;;;4959235;28;20389;-74
2024/03/18 10:04:59;;;;;;;;;;;;;;;;;;4963724;28;19992;-74
2024/03/18 10:07:26;;;;;;;;;;;;;;;;;;4962982;28;19938;-76
2024/03/18 10:09:53;;;;;;;;;;;;;;;;;;4960594;28;20404;-75
2024/03/18 10:12:20;;;;;;;;;;;;;;;;;;4954493;28;19931;-75
2024/03/18 10:14:47;;;;;;;;;;;;;;;;;;4955132;28;20300;-73
2024/03/18 10:17:14;;;;;;;;;;;;;;;;;;4964176;28;19935;-75
2024/03/18 10:19:41;;;;;;;;;;;;;;;;;;4966787;28;19936;-75
2024/03/18 10:22:09;;;;;;;;;;;;;;;;;;4961170;28;19992;-74
2024/03/18 10:24:36;;;;;;;;;;;;;;;;;;4957350;28;19988;-75
2024/03/18 10:27:03;;;;;;;;;;;;;;;;;;4964264;28;19931;-75
2024/03/18 10:29:30;;;;;;;;;;;;;;;;;;4959144;28;19934;-75
2024/03/18 10:31:57;;;;;;;;;;;;;;;;;;4961446;28;20024;-75
2024/03/18 10:34:24;;;;;;;;;;;;;;;;;;4953759;28;19934;-76
2024/03/18 10:36:52;;;;;;;;;;;;;;;;;;4958998;28;19940;-74
2024/03/18 10:39:19;;;;;;;;;;;;;;;;;;4959194;28;19953;-75
2024/03/18 10:41:46;;;;;;;;;;;;;;;;;;4957586;28;20270;-74
2024/03/18 10:44:13;;;;;;;;;;;;;;;;;;4958906;28;19937;-74
2024/03/18 10:46:40;;;;;;;;;;;;;;;;;;4954143;28;20373;-74
2024/03/18 10:49:07;;;;;;;;;;;;;;;;;;4967434;28;19952;-74
2024/03/18 10:51:34;;;;;;;;;;;;;;;;;;4965088;28;19934;-74
2024/03/18 10:54:01;;;;;;;;;;;;;;;;;;4963856;28;19937;-73
2024/03/18 10:56:29;;;;;;;;;;;;;;;;;;4959937;28;20408;-76
2024/03/18 10:58:56;;;;;;;;;;;;;;;;;;4969998;28;19934;-74
2024/03/18 11:01:23;;;;;;;;;;;;;;;;;;4962956;28;19938;-75
2024/03/18 11:03:51;;;;;;;;;;;;;;;;;;4960418;28;19938;-75
2024/03/18 11:06:18;;;;;;;;;;;;;;;;;;4967168;28;19934;-75
2024/03/18 11:08:45;;;;;;;;;;;;;;;;;;4968283;28;19938;-75
2024/03/18 11:11:12;;;;;;;;;;;;;;;;;;4954288;28;19953;-75
2024/03/18 11:13:39;;;;;;;;;;;;;;;;;;4960613;28;19988;-75
2024/03/18 11:16:07;;;;;;;;;;;;;;;;;;4965609;28;20305;-75
2024/03/18 11:18:35;;;;;;;;;;;;;;;;;;4953934;28;19998;-75
2024/03/18 11:21:02;;;;;;;;;;;;;;;;;;4971075;28;20008;-76
2024/03/18 11:23:29;;;;;;;;;;;;;;;;;;4970398;28;20416;-75
2024/03/18 11:25:56;;;;;;;;;;;;;;;;;;4965804;28;20004;-74
2024/03/18 11:28:23;;;;;;;;;;;;;;;;;;4959425;28;19981;-74
2024/03/18 11:30:50;;;;;;;;;;;;;;;;;;4962045;28;19982;-74
2024/03/18 11:33:17;;;;;;;;;;;;;;;;;;4960440;28;19931;-75
2024/03/18 11:35:45;;;;;;;;;;;;;;;;;;4969753;28;19934;-74
2024/03/18 11:38:12;;;;;;;;;;;;;;;;;;4954552;28;19981;-75
2024/03/18 11:40:39;;;;;;;;;;;;;;;;;;4960586;28;20305;-74
2024/03/18 11:43:06;;;;;;;;;;;;;;;;;;4962492;28;19999;-74
2024/03/18 11:45:33;;;;;;;;;;;;;;;;;;4966496;28;19969;-74
2024/03/18 11:48:02;;;;;;;;;;;;;;;;;;4973726;28;19992;-75
2024/03/18 11:50:29;;;;;;;;;;;;;;;;;;4971303;28;20401;-75
2024/03/18 11:52:56;;;;;;;;;;;;;;;;;;4956474;28;19981;-74
2024/03/18 11:55:23;;;;;;;;;;;;;;;;;;4970216;28;19940;-75
2024/03/18 11:57:50;;;;;;;;;;;;;;;;;;4960035;28;19965;-74
2024/03/18 12:00:17;;;;;;;;;;;;;;;;;;4966288;28;20052;-74
2024/03/18 12:02:45;;;;;;;;;;;;;;;;;;4965089;28;19982;-75
2024/03/18 12:05:12;;;;;;;;;;;;;;;;;;4957762;28;19930;-74
2024/03/18 12:07:39;;;;;;;;;;;;;;;;;;4963697;28;19969;-74
2024/03/18 12:10:06;;;;;;;;;;;;;;;;;;4957275;28;19930;-74
2024/03/18 12:12:33;;;;;;;;;;;;;;;;;;4960504;28;19930;-74
2024/03/18 12:15:00;;;;;;;;;;;;;;;;;;4965026;28;19938;-75
2024/03/18 12:17:28;;;;;;;;;;;;;;;;;;4966048;28;19930;-75
2024/03/18 12:19:59;;;;;;;;;;;;;;;;;;4965144;28;19930;-75
2024/03/18 12:22:28;;;;;;;;;;;;;;;;;;4962928;28;19937;-74
2024/03/18 12:30:24;;;;;;;;;;;;;;;;;;4966468;28;20293;-75
2024/03/18 12:32:51;;;;;;;;;;;;;;;;;;4974079;28;19929;-75
2024/03/18 12:35:19;;;;;;;;;;;;;;;;;;4960350;28;20008;-74
2024/03/18 12:37:46;;;;;;;;;;;;;;;;;;4959328;28;19949;-74
2024/03/18 12:40:14;;;;;;;;;;;;;;;;;;4959658;28;20004;-75
2024/03/18 12:42:41;;;;;;;;;;;;;;;;;;4962131;28;19931;-75
2024/03/18 12:45:09;;;;;;;;;;;;;;;;;;4971044;28;20478;-74
2024/03/18 12:47:37;;;;;;;;;;;;;;;;;;4966542;28;20422;-75
2024/03/18 12:50:05;;;;;;;;;;;;;;;;;;4971937;28;19953;-76
2024/03/18 12:52:32;;;;;;;;;;;;;;;;;;4965460;28;20040;-74
2024/03/18 12:54:58;;;;;;;;;;;;;;;;;;4958638;28;19974;-77
2024/03/18 12:57:26;;;;;;;;;;;;;;;;;;4966521;28;20329;-74
2024/03/18 12:59:53;;;;;;;;;;;;;;;;;;4981439;28;19934;-75
2024/03/18 13:02:20;;;;;;;;;;;;;;;;;;4966543;28;19969;-74
2024/03/18 13:04:47;;;;;;;;;;;;;;;;;;4958447;28;20023;-75
2024/03/18 13:07:15;;;;;;;;;;;;;;;;;;4970476;28;19934;-75
2024/03/18 13:09:42;;;;;;;;;;;;;;;;;;4979750;28;19941;-74
2024/03/18 13:12:09;;;;;;;;;;;;;;;;;;4962200;28;19930;-75
2024/03/18 13:14:37;;;;;;;;;;;;;;;;;;4980718;28;19929;-75
2024/03/18 13:17:04;;;;;;;;;;;;;;;;;;4954274;28;19970;-75
2024/03/18 13:19:31;;;;;;;;;;;;;;;;;;4967348;28;19957;-74
2024/03/18 13:21:58;;;;;;;;;;;;;;;;;;4968513;28;20405;-74
2024/03/18 13:24:25;;;;;;;;;;;;;;;;;;4971735;28;19952;-74
2024/03/18 13:26:52;;;;;;;;;;;;;;;;;;4960987;28;20016;-74
2024/03/18 13:29:22;;;;;;;;;;;;;;;;;;4955687;28;19931;-70
2024/03/18 13:31:51;;;;;;;;;;;;;;;;;;4953826;28;19930;-74
2024/03/18 13:34:18;;;;;;;;;;;;;;;;;;4957245;28;19931;-74
2024/03/18 13:36:45;;;;;;;;;;;;;;;;;;4959652;28;20023;-74
2024/03/18 13:39:12;;;;;;;;;;;;;;;;;;4959160;28;19954;-75
2024/03/18 13:41:39;;;;;;;;;;;;;;;;;;4981680;28;19930;-75
2024/03/18 13:44:07;;;;;;;;;;;;;;;;;;4973916;28;19934;-74
2024/03/18 13:46:34;;;;;;;;;;;;;;;;;;4962225;28;20521;-76
2024/03/18 13:49:04;;;;;;;;;;;;;;;;;;4971801;28;19942;-75
2024/03/18 13:51:31;;;;;;;;;;;;;;;;;;4959949;28;19953;-74
2024/03/18 13:53:58;;;;;;;;;;;;;;;;;;4963565;28;19937;-75
2024/03/18 13:56:25;;;;;;;;;;;;;;;;;;4965992;28;19973;-74
2024/03/18 13:58:52;;;;;;;;;;;;;;;;;;4950466;28;19934;-75
2024/03/18 14:01:20;;;;;;;;;;;;;;;;;;4966566;28;20016;-74
2024/03/18 14:03:47;;;;;;;;;;;;;;;;;;5001139;28;20000;-74
2024/03/18 14:06:14;;;;;;;;;;;;;;;;;;4981435;28;19970;-75
2024/03/18 14:08:41;;;;;;;;;;;;;;;;;;4989734;28;19976;-74
2024/03/18 14:11:08;;;;;;;;;;;;;;;;;;4970147;28;20303;-74
2024/03/18 14:13:35;;;;;;;;;;;;;;;;;;4968991;28;19934;-74
2024/03/18 14:16:04;;;;;;;;;;;;;;;;;;4973843;28;19930;-75
2024/03/18 14:18:31;;;;;;;;;;;;;;;;;;4970377;28;19937;-74
2024/03/18 14:20:58;;;;;;;;;;;;;;;;;;4966166;28;20364;-75
2024/03/18 14:23:25;;;;;;;;;;;;;;;;;;4969872;28;20001;-75
2024/03/18 14:25:52;;;;;;;;;;;;;;;;;;4968591;28;19930;-75
2024/03/18 14:28:20;;;;;;;;;;;;;;;;;;4967871;28;19930;-74
2024/03/18 14:30:47;;;;;;;;;;;;;;;;;;4956718;28;19965;-73
2024/03/18 14:33:14;;;;;;;;;;;;;;;;;;4971217;28;19930;-74
2024/03/18 14:35:41;;;;;;;;;;;;;;;;;;4965662;28;19930;-74
2024/03/18 14:38:08;;;;;;;;;;;;;;;;;;4960392;28;19966;-74
2024/03/18 14:40:35;;;;;;;;;;;;;;;;;;4981466;28;20024;-76
2024/03/18 14:43:02;;;;;;;;;;;;;;;;;;4996725;28;20011;-76
2024/03/18 14:45:31;;;;;;;;;;;;;;;;;;4964361;28;19931;-76
2024/03/18 14:48:00;;;;;;;;;;;;;;;;;;4967439;28;20013;-76
2024/03/18 14:50:27;;;;;;;;;;;;;;;;;;4967283;28;19935;-76
2024/03/18 14:52:54;;;;;;;;;;;;;;;;;;4983915;28;19976;-77
2024/03/18 14:55:22;;;;;;;;;;;;;;;;;;5004593;28;19928;-76
2024/03/18 14:57:49;;;;;;;;;;;;;;;;;;4958917;28;19930;-76
2024/03/18 15:00:17;;;;;;;;;;;;;;;;;;4963611;28;19995;-76
2024/03/18 15:02:44;;;;;;;;;;;;;;;;;;4957085;28;20003;-76
2024/03/18 15:05:11;;;;;;;;;;;;;;;;;;4959895;28;19991;-75
2024/03/18 15:07:38;;;;;;;;;;;;;;;;;;4970428;28;19929;-75
2024/03/18 15:10:06;;;;;;;;;;;;;;;;;;4968136;28;19934;-78
2024/03/18 15:12:33;;;;;;;;;;;;;;;;;;4983627;28;19932;-76
2024/03/18 15:15:00;;;;;;;;;;;;;;;;;;4982922;28;19984;-77
2024/03/18 15:17:27;;;;;;;;;;;;;;;;;;4963527;28;19938;-74
2024/03/18 15:19:54;;;;;;;;;;;;;;;;;;4969442;28;19958;-74
2024/03/18 15:22:21;;;;;;;;;;;;;;;;;;4960801;28;19987;-77
2024/03/18 15:24:59;;;;;;;;;;;;;;;;;;4960395;28;19949;-77
2024/03/18 15:30:11;;;;;;;;;;;;;;;;;;4954246;28;20290;-80
2024/03/18 15:32:38;;;;;;;;;;;;;;;;;;4980149;28;19926;-77
2024/03/18 15:35:05;;;;;;;;;;;;;;;;;;4972687;28;19941;-80
2024/03/18 15:37:36;;;;;;;;;;;;;;;;;;4969869;28;19930;-78
2024/03/18 15:40:05;;;;;;;;;;;;;;;;;;4956042;28;19930;-78
2024/03/18 15:42:32;;;;;;;;;;;;;;;;;;4967036;28;19936;-78
2024/03/18 15:44:59;;;;;;;;;;;;;;;;;;4955927;28;19930;-78
2024/03/18 15:47:26;;;;;;;;;;;;;;;;;;4973750;28;20478;-78
2024/03/18 15:49:53;;;;;;;;;;;;;;;;;;4969214;28;19938;-79
2024/03/18 15:52:20;;;;;;;;;;;;;;;;;;4951576;28;19930;-78
2024/03/18 15:54:47;;;;;;;;;;;;;;;;;;4984653;28;19937;-78
2024/03/18 15:57:15;;;;;;;;;;;;;;;;;;4963837;28;20393;-79
2024/03/18 15:59:42;;;;;;;;;;;;;;;;;;4979939;28;19930;-78
2024/03/18 16:02:09;;;;;;;;;;;;;;;;;;4970045;28;19941;-76
2024/03/18 16:04:36;;;;;;;;;;;;;;;;;;4973503;28;20397;-78
2024/03/18 16:07:04;;;;;;;;;;;;;;;;;;4960716;28;19930;-79
2024/03/18 16:09:32;;;;;;;;;;;;;;;;;;4973339;28;19983;-79
2024/03/18 16:11:59;;;;;;;;;;;;;;;;;;4964850;28;20316;-78
2024/03/18 16:14:26;;;;;;;;;;;;;;;;;;4972894;28;20019;-77
2024/03/18 16:16:53;;;;;;;;;;;;;;;;;;4991911;28;19969;-79
2024/03/18 16:19:21;;;;;;;;;;;;;;;;;;4990479;28;20000;-78
2024/03/18 16:21:53;;;;;;;;;;;;;;;;;;4968699;28;19930;-78
2024/03/18 16:24:23;;;;;;;;;;;;;;;;;;4977832;28;20071;-78
2024/03/18 16:26:50;;;;;;;;;;;;;;;;;;4980981;28;20005;-79
2024/03/18 16:29:17;;;;;;;;;;;;;;;;;;4976921;28;19934;-78
2024/03/18 16:31:46;;;;;;;;;;;;;;;;;;4963344;28;19937;-79
2024/03/18 16:34:13;;;;;;;;;;;;;;;;;;4965394;28;20345;-79
2024/03/18 16:36:40;;;;;;;;;;;;;;;;;;4953958;28;19930;-78
2024/03/18 16:39:08;;;;;;;;;;;;;;;;;;5039142;28;19952;-77
2024/03/18 16:41:35;;;;;;;;;;;;;;;;;;4969364;28;19941;-79
2024/03/18 16:44:02;;;;;;;;;;;;;;;;;;4951905;28;19930;-79
2024/03/18 16:46:29;;;;;;;;;;;;;;;;;;4965522;28;20419;-77
2024/03/18 16:48:56;;;;;;;;;;;;;;;;;;4949037;28;19934;-78
2024/03/18 16:51:24;;;;;;;;;;;;;;;;;;4967112;28;20027;-79
2024/03/18 16:53:51;;;;;;;;;;;;;;;;;;4959517;28;19930;-78